Time;durP1;ratioP1;P1;durP2;ratioP2;P2;SDS_P1;SDS_P2;PMS_P1;PMS_P2;Temp;Humidity;BMP_temperature;BMP_pressure;BME280_temperature;BME280_humidity;BME280_pressure;Samples;Min_cycle;Max_cycle;Signal;HPM_P1;HPM_P2
2021/06/05 00:00:47;;;;;;;14.60;7.97;;;;;;;;;;5103165;28;20056;-77
2021/06/05 00:03:15;;;;;;;11.45;7.72;;;;;;;;;;5103393;28;20130;-77
2021/06/05 00:05:44;;;;;;;10.90;7.40;;;;;;;;;;5103803;28;20676;-77
2021/06/05 00:08:12;;;;;;;12.43;7.10;;;;;;;;;;5094358;28;20158;-77
2021/06/05 00:10:41;;;;;;;16.85;7.72;;;;;;;;;;5102906;28;20079;-77
2021/06/05 00:13:11;;;;;;;11.20;7.43;;;;;;;;;;5104659;28;20085;-77
2021/06/05 00:15:40;;;;;;;15.40;7.85;;;;;;;;;;5103243;28;20139;-78
2021/06/05 00:18:08;;;;;;;10.57;7.95;;;;;;;;;;5104504;28;20191;-77
2021/06/05 00:20:35;;;;;;;13.07;7.45;;;;;;;;;;5102971;28;20043;-77
2021/06/05 00:23:05;;;;;;;11.60;7.50;;;;;;;;;;5104233;28;20150;-77
2021/06/05 00:25:33;;;;;;;13.57;7.53;;;;;;;;;;5103472;28;20139;-77
2021/06/05 00:28:00;;;;;;;16.77;8.57;;;;;;;;;;5106087;28;20131;-78
2021/06/05 00:30:28;;;;;;;14.10;7.75;;;;;;;;;;5106611;28;20051;-77
2021/06/05 00:32:56;;;;;;;16.35;9.13;;;;;;;;;;5106301;28;20135;-78
2021/06/05 00:35:25;;;;;;;13.43;9.18;;;;;;;;;;5103680;28;20059;-77
2021/06/05 00:37:52;;;;;;;15.80;8.43;;;;;;;;;;5095051;28;20109;-78
2021/06/05 00:40:20;;;;;;;17.77;9.20;;;;;;;;;;5094126;28;20053;-77
2021/06/05 00:42:47;;;;;;;12.63;8.20;;;;;;;;;;5099823;28;20127;-78
2021/06/05 00:45:16;;;;;;;14.00;8.50;;;;;;;;;;5087190;28;20080;-77
2021/06/05 00:47:43;;;;;;;15.93;7.32;;;;;;;;;;5087653;28;20143;-77
2021/06/05 00:50:12;;;;;;;13.90;8.75;;;;;;;;;;5104791;28;20055;-77
2021/06/05 00:52:40;;;;;;;12.43;7.93;;;;;;;;;;5107630;28;20147;-77
2021/06/05 00:55:08;;;;;;;14.98;8.70;;;;;;;;;;5107505;28;20651;-77
2021/06/05 00:57:36;;;;;;;14.25;9.43;;;;;;;;;;5107782;28;20135;-78
2021/06/05 01:00:05;;;;;;;13.55;8.40;;;;;;;;;;5105060;28;20138;-77
2021/06/05 01:02:32;;;;;;;11.98;8.32;;;;;;;;;;5105756;28;20262;-77
2021/06/05 01:05:00;;;;;;;15.55;7.82;;;;;;;;;;5103564;28;20465;-77
2021/06/05 01:07:28;;;;;;;14.30;8.32;;;;;;;;;;5097501;28;20071;-77
2021/06/05 01:09:58;;;;;;;20.20;8.55;;;;;;;;;;5105962;28;20081;-77
2021/06/05 01:12:46;;;;;;;11.23;8.00;;;;;;;;;;5096889;28;20678;-77
2021/06/05 01:15:21;;;;;;;14.40;7.80;;;;;;;;;;5086891;28;20177;-77
2021/06/05 01:17:52;;;;;;;21.58;8.70;;;;;;;;;;5085230;28;20171;-77
2021/06/05 01:20:19;;;;;;;15.98;8.18;;;;;;;;;;5088034;28;20147;-77
2021/06/05 01:23:18;;;;;;;17.00;9.35;;;;;;;;;;5092565;28;20130;-77
2021/06/05 01:26:04;;;;;;;13.35;8.63;;;;;;;;;;5083419;27;20142;-78
2021/06/05 01:28:34;;;;;;;13.57;8.20;;;;;;;;;;5106860;28;20139;-77
2021/06/05 01:31:03;;;;;;;15.05;7.78;;;;;;;;;;5107134;28;20044;-78
2021/06/05 01:33:32;;;;;;;14.63;8.32;;;;;;;;;;5106859;28;20400;-77
2021/06/05 01:36:00;;;;;;;12.38;7.43;;;;;;;;;;5096798;28;20044;-77
2021/06/05 01:38:29;;;;;;;12.65;8.73;;;;;;;;;;5105950;28;20085;-78
2021/06/05 01:40:57;;;;;;;17.88;8.70;;;;;;;;;;5105204;28;20518;-77
2021/06/05 01:43:26;;;;;;;20.50;8.68;;;;;;;;;;5096718;28;20119;-77
2021/06/05 01:45:54;;;;;;;14.60;8.52;;;;;;;;;;5104663;28;20047;-77
2021/06/05 01:48:22;;;;;;;17.77;9.15;;;;;;;;;;5106845;28;20051;-77
2021/06/05 01:50:50;;;;;;;10.85;8.02;;;;;;;;;;5105275;28;20054;-77
2021/06/05 01:53:20;;;;;;;17.67;9.57;;;;;;;;;;5106501;28;20055;-77
2021/06/05 01:55:52;;;;;;;12.77;9.35;;;;;;;;;;5106241;28;20090;-77
2021/06/05 01:58:21;;;;;;;14.35;9.55;;;;;;;;;;5106230;28;20492;-77
2021/06/05 02:00:51;;;;;;;15.60;8.90;;;;;;;;;;5106640;28;20083;-77
2021/06/05 02:03:19;;;;;;;13.45;8.70;;;;;;;;;;5106417;28;20671;-77
2021/06/05 02:05:46;;;;;;;16.42;9.90;;;;;;;;;;5104321;28;20134;-77
2021/06/05 02:08:15;;;;;;;16.58;9.05;;;;;;;;;;5097360;28;20044;-78
2021/06/05 02:10:42;;;;;;;22.63;9.13;;;;;;;;;;5099993;28;20048;-77
2021/06/05 02:13:29;;;;;;;16.20;9.07;;;;;;;;;;5097079;28;20154;-77
2021/06/05 02:16:02;;;;;;;12.57;9.55;;;;;;;;;;5113554;28;20453;-82
2021/06/05 02:18:31;;;;;;;24.38;9.70;;;;;;;;;;5112351;28;20074;-82
2021/06/05 02:21:03;;;;;;;12.63;8.40;;;;;;;;;;5113733;28;20516;-82
2021/06/05 02:23:43;;;;;;;12.35;8.52;;;;;;;;;;5111244;28;20802;-82
2021/06/05 02:26:13;;;;;;;21.83;9.90;;;;;;;;;;5113416;28;20047;-82
2021/06/05 02:28:40;;;;;;;13.98;8.88;;;;;;;;;;5113484;28;20087;-82
2021/06/05 02:31:09;;;;;;;17.20;9.15;;;;;;;;;;5112406;28;20519;-81
2021/06/05 02:33:38;;;;;;;13.60;9.00;;;;;;;;;;5110870;28;20138;-82
2021/06/05 02:36:09;;;;;;;17.65;9.15;;;;;;;;;;5109976;28;20126;-82
2021/06/05 02:38:36;;;;;;;17.17;9.50;;;;;;;;;;5092457;28;20048;-82
2021/06/05 02:41:07;;;;;;;19.17;10.20;;;;;;;;;;5100819;28;20135;-83
2021/06/05 02:43:35;;;;;;;19.90;10.02;;;;;;;;;;5111566;28;20071;-82
2021/06/05 02:46:05;;;;;;;15.35;11.05;;;;;;;;;;5108196;28;20131;-77
2021/06/05 02:48:40;;;;;;;15.52;10.65;;;;;;;;;;5103397;28;20559;-76
2021/06/05 02:51:08;;;;;;;15.15;9.55;;;;;;;;;;5104520;28;20123;-77
2021/06/05 02:53:35;;;;;;;16.70;10.40;;;;;;;;;;5102930;28;20047;-77
2021/06/05 02:56:03;;;;;;;16.08;10.10;;;;;;;;;;5102383;28;20102;-77
2021/06/05 02:58:33;;;;;;;14.07;10.10;;;;;;;;;;5105418;28;20787;-77
2021/06/05 03:01:01;;;;;;;15.90;9.90;;;;;;;;;;5104453;28;20059;-77
2021/06/05 03:03:28;;;;;;;12.82;9.40;;;;;;;;;;5103160;28;20784;-77
2021/06/05 03:05:55;;;;;;;14.75;9.90;;;;;;;;;;5093846;28;20135;-77
2021/06/05 03:08:24;;;;;;;14.48;9.80;;;;;;;;;;5096553;28;20125;-77
2021/06/05 03:10:52;;;;;;;21.15;10.02;;;;;;;;;;5103395;28;20733;-77
2021/06/05 03:13:21;;;;;;;21.35;10.45;;;;;;;;;;5102232;28;20054;-77
2021/06/05 03:15:49;;;;;;;13.68;9.55;;;;;;;;;;5100267;28;20053;-77
2021/06/05 03:18:18;;;;;;;14.48;9.27;;;;;;;;;;5104098;28;20048;-77
2021/06/05 03:20:46;;;;;;;20.58;11.43;;;;;;;;;;5102459;28;20515;-77
2021/06/05 03:23:15;;;;;;;18.90;10.10;;;;;;;;;;5103381;28;20146;-77
2021/06/05 03:25:42;;;;;;;13.68;9.63;;;;;;;;;;5103701;28;20150;-77
2021/06/05 03:28:09;;;;;;;17.27;10.48;;;;;;;;;;5103610;28;20127;-77
2021/06/05 03:30:37;;;;;;;17.33;11.20;;;;;;;;;;5104135;28;20658;-77
2021/06/05 03:33:04;;;;;;;18.83;10.90;;;;;;;;;;5103857;28;20139;-77
2021/06/05 03:35:32;;;;;;;16.63;10.68;;;;;;;;;;5103282;28;20047;-77
2021/06/05 03:37:59;;;;;;;19.67;10.55;;;;;;;;;;5099149;28;20066;-77
2021/06/05 03:40:28;;;;;;;17.27;10.48;;;;;;;;;;5104421;28;20130;-77
2021/06/05 03:42:55;;;;;;;18.58;11.05;;;;;;;;;;5094916;28;20150;-78
2021/06/05 03:45:23;;;;;;;16.13;10.63;;;;;;;;;;5102741;28;20059;-78
2021/06/05 03:47:50;;;;;;;17.50;11.00;;;;;;;;;;5103052;28;20162;-77
2021/06/05 03:50:20;;;;;;;19.30;10.63;;;;;;;;;;5103518;28;20130;-78
2021/06/05 03:52:47;;;;;;;21.83;11.35;;;;;;;;;;5103358;28;20086;-77
2021/06/05 03:55:14;;;;;;;17.00;10.68;;;;;;;;;;5103108;28;20052;-78
2021/06/05 03:57:42;;;;;;;13.60;9.38;;;;;;;;;;5102798;28;20738;-77
2021/06/05 04:00:17;;;;;;;19.27;11.13;;;;;;;;;;5103765;28;20146;-77
2021/06/05 04:02:45;;;;;;;17.00;11.52;;;;;;;;;;5107790;28;20667;-78
2021/06/05 04:05:13;;;;;;;22.60;11.10;;;;;;;;;;5107628;28;20460;-77
2021/06/05 04:07:40;;;;;;;16.50;10.60;;;;;;;;;;5104214;28;20134;-77
2021/06/05 04:10:08;;;;;;;20.48;10.50;;;;;;;;;;5106798;28;20071;-76
2021/06/05 04:12:36;;;;;;;16.90;11.10;;;;;;;;;;5098200;28;20079;-76
2021/06/05 04:15:09;;;;;;;21.50;10.30;;;;;;;;;;5107025;28;20167;-76
2021/06/05 04:17:37;;;;;;;15.98;9.98;;;;;;;;;;5099898;28;20742;-77
2021/06/05 04:20:05;;;;;;;13.30;9.82;;;;;;;;;;5096923;28;20056;-83
2021/06/05 04:22:33;;;;;;;21.65;10.73;;;;;;;;;;5106541;28;20043;-83
2021/06/05 04:25:12;;;;;;;18.95;10.90;;;;;;;;;;5139802;27;20147;-86
2021/06/05 04:27:39;;;;;;;17.50;10.63;;;;;;;;;;5122950;27;20078;-87
2021/06/05 04:30:09;;;;;;;16.92;8.98;;;;;;;;;;5122797;28;20133;-87
2021/06/05 04:32:37;;;;;;;18.13;9.88;;;;;;;;;;5122234;27;20134;-86
2021/06/05 04:35:05;;;;;;;17.08;9.55;;;;;;;;;;5119689;28;20130;-87
2021/06/05 04:37:33;;;;;;;16.55;10.68;;;;;;;;;;5122643;28;20142;-87
2021/06/05 04:40:00;;;;;;;13.05;9.45;;;;;;;;;;5122829;28;20299;-86
2021/06/05 04:42:27;;;;;;;14.50;9.43;;;;;;;;;;5123445;27;20059;-86
2021/06/05 04:44:54;;;;;;;15.90;9.45;;;;;;;;;;5123265;27;20053;-86
2021/06/05 04:47:22;;;;;;;14.93;8.88;;;;;;;;;;5121825;28;20130;-86
2021/06/05 04:49:49;;;;;;;17.45;9.35;;;;;;;;;;5121186;27;20092;-86
2021/06/05 04:52:16;;;;;;;12.73;8.93;;;;;;;;;;5122037;27;20079;-85
2021/06/05 04:54:43;;;;;;;16.17;8.65;;;;;;;;;;5121383;28;20415;-85
2021/06/05 04:57:10;;;;;;;17.83;9.45;;;;;;;;;;5120434;28;20087;-86
2021/06/05 04:59:38;;;;;;;13.70;9.40;;;;;;;;;;5119596;27;20441;-86
2021/06/05 05:02:05;;;;;;;15.93;9.15;;;;;;;;;;5120845;28;20051;-85
2021/06/05 05:04:32;;;;;;;12.73;8.05;;;;;;;;;;5121672;28;20456;-85
2021/06/05 05:07:00;;;;;;;12.90;9.05;;;;;;;;;;5120441;27;20043;-85
2021/06/05 05:09:27;;;;;;;18.15;8.52;;;;;;;;;;5121264;28;20138;-86
2021/06/05 05:11:54;;;;;;;16.30;9.82;;;;;;;;;;5122659;28;20788;-86
2021/06/05 05:14:22;;;;;;;14.98;9.07;;;;;;;;;;5126388;27;20062;-86
2021/06/05 05:16:49;;;;;;;13.75;8.60;;;;;;;;;;5128469;27;20092;-85
2021/06/05 05:19:17;;;;;;;17.67;9.48;;;;;;;;;;5127824;28;20123;-85
2021/06/05 05:21:44;;;;;;;14.45;8.73;;;;;;;;;;5128257;28;20077;-85
2021/06/05 05:24:11;;;;;;;11.50;8.30;;;;;;;;;;5125651;28;20686;-86
2021/06/05 05:26:38;;;;;;;12.05;8.02;;;;;;;;;;5126372;27;20515;-86
2021/06/05 05:29:05;;;;;;;13.80;8.40;;;;;;;;;;5126467;28;20097;-85
2021/06/05 05:31:33;;;;;;;14.52;8.48;;;;;;;;;;5126489;27;20086;-86
2021/06/05 05:34:01;;;;;;;16.85;9.82;;;;;;;;;;5126732;27;20047;-85
2021/06/05 05:36:32;;;;;;;14.55;8.38;;;;;;;;;;5113663;28;20132;-86
2021/06/05 05:39:01;;;;;;;17.30;8.63;;;;;;;;;;5114255;28;20047;-85
2021/06/05 05:41:29;;;;;;;13.02;9.15;;;;;;;;;;5114289;28;20134;-85
2021/06/05 05:43:57;;;;;;;12.80;9.02;;;;;;;;;;5110206;28;20150;-86
2021/06/05 05:46:24;;;;;;;14.43;9.50;;;;;;;;;;5110044;28;20572;-87
2021/06/05 05:48:52;;;;;;;13.85;8.55;;;;;;;;;;5109346;28;20048;-86
2021/06/05 05:51:20;;;;;;;15.68;8.60;;;;;;;;;;5108945;28;20519;-87
2021/06/05 05:53:48;;;;;;;16.63;8.48;;;;;;;;;;5109694;28;20539;-87
2021/06/05 05:56:16;;;;;;;15.27;9.18;;;;;;;;;;5110174;28;20301;-88
2021/06/05 05:58:45;;;;;;;13.32;8.60;;;;;;;;;;5110068;28;20183;-87
2021/06/05 06:01:14;;;;;;;14.98;9.23;;;;;;;;;;5110702;28;20139;-87
2021/06/05 06:03:43;;;;;;;20.73;9.02;;;;;;;;;;5108701;28;20753;-87
2021/06/05 06:06:10;;;;;;;29.48;8.90;;;;;;;;;;5108693;28;20135;-88
2021/06/05 06:08:38;;;;;;;12.38;8.45;;;;;;;;;;5109749;28;20860;-88
2021/06/05 06:11:06;;;;;;;14.68;9.38;;;;;;;;;;5107352;28;20136;-87
2021/06/05 06:13:33;;;;;;;17.10;9.02;;;;;;;;;;5107257;28;20090;-87
2021/06/05 06:16:01;;;;;;;15.00;8.98;;;;;;;;;;5106948;28;20135;-88
2021/06/05 06:18:28;;;;;;;11.85;8.23;;;;;;;;;;5108495;28;20058;-87
2021/06/05 06:20:56;;;;;;;14.65;7.93;;;;;;;;;;5107855;28;20107;-88
2021/06/05 06:23:25;;;;;;;16.45;8.60;;;;;;;;;;5107625;28;20051;-89
2021/06/05 06:25:53;;;;;;;10.43;7.68;;;;;;;;;;5108758;28;20523;-89
2021/06/05 06:28:26;;;;;;;15.27;8.32;;;;;;;;;;5106947;28;20581;-89
2021/06/05 06:30:53;;;;;;;14.40;9.63;;;;;;;;;;5106429;28;20039;-87
2021/06/05 06:33:21;;;;;;;12.43;6.88;;;;;;;;;;5105878;28;20130;-88
2021/06/05 06:35:49;;;;;;;13.43;7.78;;;;;;;;;;5106780;28;20079;-87
2021/06/05 06:38:18;;;;;;;17.48;7.95;;;;;;;;;;5106652;28;20067;-87
2021/06/05 06:40:45;;;;;;;12.68;8.05;;;;;;;;;;5106313;28;20562;-87
2021/06/05 06:43:17;;;;;;;14.60;8.13;;;;;;;;;;5106603;28;20124;-87
2021/06/05 06:45:49;;;;;;;8.70;7.18;;;;;;;;;;5106348;28;20131;-86
2021/06/05 06:48:17;;;;;;;14.00;7.63;;;;;;;;;;5106542;28;20130;-88
2021/06/05 06:50:44;;;;;;;10.55;7.38;;;;;;;;;;5107834;28;20087;-87
2021/06/05 06:53:11;;;;;;;12.05;8.02;;;;;;;;;;5109093;28;20082;-88
2021/06/05 06:55:39;;;;;;;14.32;7.03;;;;;;;;;;5108692;28;20090;-87
2021/06/05 06:58:06;;;;;;;9.27;7.05;;;;;;;;;;5108911;28;20593;-87
2021/06/05 07:00:36;;;;;;;11.52;7.28;;;;;;;;;;5109562;28;20052;-88
2021/06/05 07:03:04;;;;;;;7.45;6.53;;;;;;;;;;5111265;28;20074;-87
2021/06/05 07:05:32;;;;;;;10.75;7.30;;;;;;;;;;5108783;28;20134;-88
2021/06/05 07:08:06;;;;;;;9.55;7.00;;;;;;;;;;5109371;28;20151;-88
2021/06/05 07:10:34;;;;;;;15.38;7.18;;;;;;;;;;5109743;28;20159;-88
2021/06/05 07:13:01;;;;;;;11.95;7.15;;;;;;;;;;5107954;28;20132;-88
2021/06/05 07:15:28;;;;;;;8.27;6.60;;;;;;;;;;5107992;28;20043;-89
2021/06/05 07:17:55;;;;;;;9.65;6.88;;;;;;;;;;5109786;28;20793;-90
2021/06/05 07:20:23;;;;;;;10.63;7.22;;;;;;;;;;5111524;28;20152;-89
2021/06/05 07:22:51;;;;;;;13.85;7.28;;;;;;;;;;5110018;28;20140;-89
2021/06/05 07:25:19;;;;;;;15.10;7.15;;;;;;;;;;5108240;28;20059;-88
2021/06/05 07:27:47;;;;;;;9.32;6.45;;;;;;;;;;5108791;28;20514;-86
2021/06/05 07:30:14;;;;;;;11.40;7.35;;;;;;;;;;5105908;28;20150;-86
2021/06/05 07:32:42;;;;;;;13.30;7.78;;;;;;;;;;5107563;28;20107;-86
2021/06/05 07:35:09;;;;;;;21.10;6.88;;;;;;;;;;5105594;28;20059;-86
2021/06/05 07:37:37;;;;;;;15.15;6.70;;;;;;;;;;5105458;28;20139;-86
2021/06/05 07:40:07;;;;;;;13.48;7.45;;;;;;;;;;5105066;28;20056;-86
2021/06/05 07:42:36;;;;;;;10.77;7.30;;;;;;;;;;5105468;28;20051;-86
2021/06/05 07:45:03;;;;;;;8.63;6.10;;;;;;;;;;5105359;28;20155;-86
2021/06/05 07:47:31;;;;;;;13.57;7.03;;;;;;;;;;5106903;28;20048;-86
2021/06/05 07:49:59;;;;;;;9.23;6.55;;;;;;;;;;5105456;28;20158;-86
2021/06/05 07:52:26;;;;;;;17.63;7.18;;;;;;;;;;5104525;28;20061;-86
2021/06/05 07:54:55;;;;;;;10.25;6.55;;;;;;;;;;5105846;28;20520;-86
2021/06/05 07:57:23;;;;;;;7.75;5.50;;;;;;;;;;5104246;28;20134;-85
2021/06/05 07:59:50;;;;;;;12.30;6.50;;;;;;;;;;5105003;28;20047;-86
2021/06/05 08:02:18;;;;;;;13.77;6.47;;;;;;;;;;5104945;28;20346;-86
2021/06/05 08:04:46;;;;;;;10.93;5.47;;;;;;;;;;5106041;28;20043;-86
2021/06/05 08:07:13;;;;;;;10.32;6.88;;;;;;;;;;5104379;28;20475;-86
2021/06/05 08:09:41;;;;;;;14.05;6.45;;;;;;;;;;5103986;28;20049;-87
2021/06/05 08:12:08;;;;;;;8.07;5.97;;;;;;;;;;5105798;28;20170;-86
2021/06/05 08:14:36;;;;;;;7.40;6.18;;;;;;;;;;5104854;28;20100;-86
2021/06/05 08:17:03;;;;;;;8.40;6.00;;;;;;;;;;5104712;28;20094;-87
2021/06/05 08:19:31;;;;;;;10.75;6.63;;;;;;;;;;5104344;28;20063;-86
2021/06/05 08:21:58;;;;;;;8.68;5.68;;;;;;;;;;5104451;28;20050;-86
2021/06/05 08:24:25;;;;;;;8.60;5.63;;;;;;;;;;5103997;28;20130;-86
2021/06/05 08:26:53;;;;;;;7.07;5.38;;;;;;;;;;5105622;28;20162;-86
2021/06/05 08:29:20;;;;;;;6.75;5.20;;;;;;;;;;5104793;28;20047;-86
2021/06/05 08:31:50;;;;;;;6.93;5.30;;;;;;;;;;5105650;28;20047;-86
2021/06/05 08:34:19;;;;;;;8.27;5.28;;;;;;;;;;5104206;28;20138;-86
2021/06/05 08:36:47;;;;;;;11.00;5.40;;;;;;;;;;5106466;28;20054;-86
2021/06/05 08:39:14;;;;;;;10.32;5.32;;;;;;;;;;5105145;28;20154;-86
2021/06/05 08:41:46;;;;;;;7.97;5.95;;;;;;;;;;5104541;28;20585;-86
2021/06/05 08:44:15;;;;;;;11.50;5.68;;;;;;;;;;5103437;28;20061;-86
2021/06/05 08:46:44;;;;;;;9.23;5.38;;;;;;;;;;5105655;28;20087;-86
2021/06/05 08:49:32;;;;;;;13.80;6.05;;;;;;;;;;5106006;28;20057;-86
2021/06/05 08:52:12;;;;;;;7.72;5.53;;;;;;;;;;5105624;28;20104;-85
2021/06/05 08:54:48;;;;;;;8.73;5.72;;;;;;;;;;5103937;28;20055;-85
2021/06/05 08:57:38;;;;;;;10.07;5.65;;;;;;;;;;5104215;28;20170;-85
2021/06/05 09:00:21;;;;;;;8.80;5.82;;;;;;;;;;5104554;28;20142;-85
2021/06/05 09:02:49;;;;;;;7.78;4.97;;;;;;;;;;5096405;28;20147;-85
2021/06/05 09:05:19;;;;;;;12.75;6.38;;;;;;;;;;5094542;28;20130;-86
2021/06/05 09:07:46;;;;;;;11.60;5.95;;;;;;;;;;5097042;28;20159;-86
2021/06/05 09:10:16;;;;;;;11.50;5.93;;;;;;;;;;5102073;28;20338;-85
2021/06/05 09:12:43;;;;;;;10.80;6.07;;;;;;;;;;5108974;28;20147;-85
2021/06/05 09:15:18;;;;;;;7.30;5.53;;;;;;;;;;5107525;28;20488;-85
2021/06/05 09:17:49;;;;;;;12.98;5.85;;;;;;;;;;5107385;28;20087;-85
2021/06/05 09:20:26;;;;;;;11.80;6.30;;;;;;;;;;5107921;28;20484;-86
2021/06/05 09:22:54;;;;;;;8.85;6.20;;;;;;;;;;5107601;28;20048;-85
2021/06/05 09:25:32;;;;;;;11.70;6.78;;;;;;;;;;5107838;28;20090;-85
2021/06/05 09:28:15;;;;;;;10.63;6.25;;;;;;;;;;5107501;28;20134;-85
2021/06/05 09:30:43;;;;;;;19.98;7.47;;;;;;;;;;5109397;28;20128;-85
2021/06/05 09:33:12;;;;;;;9.63;6.13;;;;;;;;;;5106994;28;20134;-85
2021/06/05 09:35:44;;;;;;;15.00;7.53;;;;;;;;;;5108661;28;20167;-86
2021/06/05 09:38:14;;;;;;;8.23;5.85;;;;;;;;;;5107036;28;20101;-85
2021/06/05 09:40:55;;;;;;;10.60;6.38;;;;;;;;;;5106872;28;20047;-85
2021/06/05 09:43:24;;;;;;;12.52;6.85;;;;;;;;;;5107306;28;20056;-86
2021/06/05 09:46:10;;;;;;;13.45;6.85;;;;;;;;;;5106787;28;20127;-86
2021/06/05 09:48:40;;;;;;;10.57;6.07;;;;;;;;;;5106965;28;20054;-86
2021/06/05 09:51:27;;;;;;;11.77;6.68;;;;;;;;;;5107124;28;20134;-85
2021/06/05 09:54:12;;;;;;;10.45;6.38;;;;;;;;;;5108731;28;20127;-86
2021/06/05 09:56:41;;;;;;;8.57;6.50;;;;;;;;;;5107040;28;20048;-86
2021/06/05 09:59:28;;;;;;;10.43;6.82;;;;;;;;;;5108419;28;20156;-86
2021/06/05 10:01:58;;;;;;;13.55;6.65;;;;;;;;;;5106840;28;20166;-85
2021/06/05 10:04:27;;;;;;;10.95;7.13;;;;;;;;;;5106628;28;20761;-86
2021/06/05 10:06:55;;;;;;;11.50;5.90;;;;;;;;;;5108086;28;20057;-85
2021/06/05 10:09:25;;;;;;;7.70;5.78;;;;;;;;;;5106794;28;20490;-86
2021/06/05 10:11:53;;;;;;;10.15;6.43;;;;;;;;;;5106906;28;20079;-86
2021/06/05 10:14:21;;;;;;;11.20;5.53;;;;;;;;;;5106725;28;20101;-86
2021/06/05 10:17:00;;;;;;;26.65;6.57;;;;;;;;;;5106743;28;20134;-86
2021/06/05 10:19:39;;;;;;;15.85;5.85;;;;;;;;;;5106626;28;20442;-85
2021/06/05 10:22:07;;;;;;;11.93;5.40;;;;;;;;;;5107959;28;20055;-85
2021/06/05 10:24:39;;;;;;;17.85;6.38;;;;;;;;;;5106027;28;20075;-86
2021/06/05 10:27:11;;;;;;;6.50;5.35;;;;;;;;;;5107781;28;20592;-85
2021/06/05 10:29:44;;;;;;;10.80;4.97;;;;;;;;;;5106246;28;20130;-86
2021/06/05 10:32:32;;;;;;;48.05;11.60;;;;;;;;;;5106494;28;20553;-86
2021/06/05 10:35:05;;;;;;;10.27;4.93;;;;;;;;;;5105162;28;20054;-86
2021/06/05 10:37:35;;;;;;;55.97;9.48;;;;;;;;;;5106464;28;20438;-86
2021/06/05 10:40:13;;;;;;;10.77;4.97;;;;;;;;;;5107523;28;20063;-85
2021/06/05 10:42:48;;;;;;;11.55;4.95;;;;;;;;;;5106641;28;20142;-86
2021/06/05 10:45:41;;;;;;;6.65;4.78;;;;;;;;;;5107048;28;20765;-86
2021/06/05 10:48:17;;;;;;;6.35;5.07;;;;;;;;;;5103036;28;20052;-86
2021/06/05 10:50:46;;;;;;;15.05;5.68;;;;;;;;;;5106860;28;20568;-85
2021/06/05 10:53:34;;;;;;;7.07;5.10;;;;;;;;;;5107361;28;20158;-85
2021/06/05 10:56:15;;;;;;;9.65;5.22;;;;;;;;;;5106031;28;20491;-85
2021/06/05 10:58:42;;;;;;;10.45;5.13;;;;;;;;;;5106344;28;20122;-85
2021/06/05 11:01:11;;;;;;;12.57;5.07;;;;;;;;;;5106362;28;20197;-85
2021/06/05 11:03:44;;;;;;;26.15;5.40;;;;;;;;;;5104653;28;20051;-86
2021/06/05 11:06:14;;;;;;;15.75;6.65;;;;;;;;;;5104866;28;20759;-86
2021/06/05 11:08:48;;;;;;;13.68;5.97;;;;;;;;;;5104982;28;20382;-86
2021/06/05 11:11:30;;;;;;;6.25;4.88;;;;;;;;;;5106657;28;20043;-85
2021/06/05 11:13:59;;;;;;;9.98;5.63;;;;;;;;;;5104932;28;20064;-85
2021/06/05 11:16:54;;;;;;;11.45;5.50;;;;;;;;;;5104362;28;20152;-85
2021/06/05 11:19:26;;;;;;;9.48;5.70;;;;;;;;;;5106191;28;20052;-85
2021/06/05 11:21:59;;;;;;;15.48;5.70;;;;;;;;;;5105247;28;20101;-86
2021/06/05 11:24:30;;;;;;;8.68;5.93;;;;;;;;;;5109501;28;20083;-86
2021/06/05 11:27:00;;;;;;;7.70;5.22;;;;;;;;;;5111042;28;20051;-85
2021/06/05 11:29:31;;;;;;;9.00;5.80;;;;;;;;;;5111671;28;20452;-85
2021/06/05 11:32:21;;;;;;;8.52;5.32;;;;;;;;;;5111980;28;20063;-85
2021/06/05 11:34:55;;;;;;;12.40;5.30;;;;;;;;;;5101197;28;20074;-84
2021/06/05 11:37:22;;;;;;;12.77;5.60;;;;;;;;;;5112189;28;20050;-85
2021/06/05 11:40:00;;;;;;;14.75;5.03;;;;;;;;;;5115181;28;20054;-85
2021/06/05 11:42:27;;;;;;;11.63;4.90;;;;;;;;;;5110935;28;20086;-85
2021/06/05 11:44:59;;;;;;;8.60;5.40;;;;;;;;;;5107613;28;20043;-85
2021/06/05 11:47:27;;;;;;;12.70;5.20;;;;;;;;;;5108474;28;20100;-85
2021/06/05 11:49:54;;;;;;;7.28;4.55;;;;;;;;;;5103949;28;20071;-84
2021/06/05 11:52:32;;;;;;;9.70;4.95;;;;;;;;;;5104756;28;20048;-85
2021/06/05 11:55:18;;;;;;;12.68;5.35;;;;;;;;;;5103869;28;20078;-85
2021/06/05 11:58:03;;;;;;;9.98;5.57;;;;;;;;;;5105026;28;20127;-85
2021/06/05 12:00:37;;;;;;;8.60;5.70;;;;;;;;;;5107081;28;20105;-84
2021/06/05 12:03:08;;;;;;;6.35;5.20;;;;;;;;;;5106169;28;20071;-85
2021/06/05 12:05:40;;;;;;;11.27;5.40;;;;;;;;;;5105835;28;20130;-85
2021/06/05 12:08:21;;;;;;;7.57;5.13;;;;;;;;;;5105402;28;20093;-85
2021/06/05 12:10:48;;;;;;;7.22;5.10;;;;;;;;;;5105997;28;20059;-84
2021/06/05 12:13:35;;;;;;;6.15;5.15;;;;;;;;;;5104682;28;20051;-85
2021/06/05 12:16:29;;;;;;;9.13;5.38;;;;;;;;;;5104667;28;20134;-85
2021/06/05 12:18:56;;;;;;;10.32;5.55;;;;;;;;;;5101761;28;20052;-85
2021/06/05 12:21:31;;;;;;;6.85;5.20;;;;;;;;;;5104262;28;20075;-84
2021/06/05 12:23:59;;;;;;;5.63;5.05;;;;;;;;;;5104491;28;20452;-85
2021/06/05 12:26:27;;;;;;;8.13;5.05;;;;;;;;;;5104469;28;20079;-85
2021/06/05 12:29:11;;;;;;;23.73;6.30;;;;;;;;;;5105685;28;20464;-84
2021/06/05 12:31:42;;;;;;;6.32;4.72;;;;;;;;;;5105393;28;20122;-85
2021/06/05 12:34:14;;;;;;;7.40;4.90;;;;;;;;;;5104361;28;20069;-84
2021/06/05 12:36:46;;;;;;;12.13;5.13;;;;;;;;;;5104238;28;20639;-85
2021/06/05 12:39:16;;;;;;;7.45;5.35;;;;;;;;;;5104332;28;20116;-85
2021/06/05 12:41:45;;;;;;;11.93;5.18;;;;;;;;;;5103984;28;20079;-85
2021/06/05 12:44:15;;;;;;;8.77;4.70;;;;;;;;;;5103717;28;20162;-85
2021/06/05 12:46:42;;;;;;;9.43;5.60;;;;;;;;;;5109544;28;20282;-85
2021/06/05 12:49:15;;;;;;;8.35;4.88;;;;;;;;;;5109956;28;20056;-85
2021/06/05 12:51:47;;;;;;;13.00;5.28;;;;;;;;;;5109971;28;20428;-85
2021/06/05 12:54:32;;;;;;;5.55;4.80;;;;;;;;;;5108268;28;20170;-85
2021/06/05 12:57:19;;;;;;;17.92;5.82;;;;;;;;;;5109745;28;20582;-85
2021/06/05 12:59:47;;;;;;;7.97;5.28;;;;;;;;;;5110016;28;20479;-85
2021/06/05 13:02:20;;;;;;;6.63;5.10;;;;;;;;;;5109730;28;20059;-85
2021/06/05 13:04:47;;;;;;;6.82;4.95;;;;;;;;;;5109363;28;20076;-85
2021/06/05 13:07:15;;;;;;;11.77;5.57;;;;;;;;;;5109976;28;20138;-85
2021/06/05 13:09:44;;;;;;;7.30;4.93;;;;;;;;;;5108589;28;20054;-85
2021/06/05 13:12:21;;;;;;;10.80;4.85;;;;;;;;;;5110019;28;20215;-85
2021/06/05 13:15:02;;;;;;;11.10;5.70;;;;;;;;;;5108195;28;20131;-85
2021/06/05 13:17:32;;;;;;;8.02;5.03;;;;;;;;;;5109750;28;20070;-84
2021/06/05 13:20:07;;;;;;;8.32;4.47;;;;;;;;;;5109907;28;20142;-85
2021/06/05 13:22:35;;;;;;;6.75;4.40;;;;;;;;;;5108198;28;20136;-85
2021/06/05 13:25:09;;;;;;;6.95;4.65;;;;;;;;;;5109422;28;20168;-85
2021/06/05 13:27:37;;;;;;;10.15;4.85;;;;;;;;;;5109888;28;20044;-85
2021/06/05 13:30:23;;;;;;;7.93;4.60;;;;;;;;;;5109335;28;20559;-85
2021/06/05 13:32:54;;;;;;;7.97;4.65;;;;;;;;;;5110244;28;20430;-85
2021/06/05 13:35:26;;;;;;;7.10;4.50;;;;;;;;;;5112353;28;20138;-85
2021/06/05 13:37:59;;;;;;;8.68;4.13;;;;;;;;;;5111568;28;20146;-85
2021/06/05 13:40:28;;;;;;;8.18;4.47;;;;;;;;;;5109364;28;20043;-85
2021/06/05 13:42:56;;;;;;;6.68;4.07;;;;;;;;;;5110183;28;20491;-85
2021/06/05 13:45:25;;;;;;;7.97;4.70;;;;;;;;;;5108822;28;20154;-85
2021/06/05 13:47:53;;;;;;;7.88;3.90;;;;;;;;;;5109478;28;20864;-85
2021/06/05 13:50:23;;;;;;;9.88;4.32;;;;;;;;;;5108257;28;20055;-85
2021/06/05 13:52:53;;;;;;;16.70;4.63;;;;;;;;;;5109268;28;20134;-85
2021/06/05 13:55:26;;;;;;;7.35;4.30;;;;;;;;;;5108885;28;20083;-85
2021/06/05 13:57:53;;;;;;;9.10;4.40;;;;;;;;;;5107525;28;20150;-85
2021/06/05 14:00:22;;;;;;;12.52;5.00;;;;;;;;;;5107264;28;20055;-85
2021/06/05 14:02:49;;;;;;;7.03;4.80;;;;;;;;;;5107755;28;20083;-84
2021/06/05 14:05:18;;;;;;;9.68;4.53;;;;;;;;;;5108623;27;20058;-85
2021/06/05 14:07:45;;;;;;;8.00;4.50;;;;;;;;;;5110759;28;20044;-85
2021/06/05 14:10:13;;;;;;;5.88;4.57;;;;;;;;;;5110715;28;20124;-85
2021/06/05 14:12:41;;;;;;;6.00;4.78;;;;;;;;;;5108261;28;20411;-85
2021/06/05 14:15:29;;;;;;;6.93;4.72;;;;;;;;;;5107279;28;20105;-85
2021/06/05 14:17:58;;;;;;;8.18;4.47;;;;;;;;;;5107831;28;20047;-85
2021/06/05 14:20:29;;;;;;;7.63;4.63;;;;;;;;;;5107897;28;20059;-85
2021/06/05 14:22:57;;;;;;;7.68;4.50;;;;;;;;;;5107970;28;20525;-86
2021/06/05 14:25:24;;;;;;;7.00;4.35;;;;;;;;;;5108683;28;20052;-85
2021/06/05 14:27:52;;;;;;;8.18;5.38;;;;;;;;;;5109768;28;20048;-86
2021/06/05 14:30:26;;;;;;;7.43;4.80;;;;;;;;;;5110474;28;20067;-86
2021/06/05 14:32:53;;;;;;;8.35;4.40;;;;;;;;;;5109575;28;20175;-86
2021/06/05 14:35:20;;;;;;;10.38;4.60;;;;;;;;;;5108404;28;20052;-86
2021/06/05 14:37:48;;;;;;;6.68;4.72;;;;;;;;;;5108626;28;20039;-86
2021/06/05 14:40:18;;;;;;;6.00;4.20;;;;;;;;;;5110291;28;20051;-86
2021/06/05 14:42:45;;;;;;;6.22;5.47;;;;;;;;;;5109809;28;20056;-86
2021/06/05 14:45:14;;;;;;;9.55;5.47;;;;;;;;;;5107927;28;20736;-86
2021/06/05 14:47:41;;;;;;;7.55;5.03;;;;;;;;;;5108045;28;20105;-86
2021/06/05 14:50:09;;;;;;;6.10;4.68;;;;;;;;;;5106447;28;20126;-87
2021/06/05 14:52:36;;;;;;;9.05;4.47;;;;;;;;;;5106530;28;20130;-86